Bignell, Nebraska
Current Conditions -  °F | °C
As of 3:53 AM on Friday 31 Oct 2014 (Local Time) from KLBF Reporting Station
Overcast Overcast  
Wind Chill: 24°   Ceiling: 500
Heat Index: 32°   Visibility: 9mi
Dew Point: 30°   Wind: 9mph
Humidity: 92%   Direction: 60°ENE
Pressure: 30.49"   Gusts: NA
Location:  41.0617°N, 100.501°W
Report Text: KLBF 310853Z AUTO 06008KT 9SM OVC005 00/M01 A3049 RMK AO2 SLP331 T00001011 51012
Loading
Personal Weather Stations






























Interactive Weather Map
Tropical Storm Tracking
New forecast layout! Learn more

10-Day Weather Forecast

Advertisements
Track Severe Weather on mobile